Zephyr, Texas
Current Conditions -  °F | °C
As of 7:55 AM on Monday 22 Dec 2014 (Local Time) from KBWD Reporting Station
Clear Clear  
Wind Chill: 10°   Ceiling: Unl
Heat Index: 10°   Visibility: 10mi
Dew Point:   Wind: 8mph
Humidity: 82%   Direction: 230°SW
Pressure: 29.67"   Gusts: NA
Location:  31.68°N, 98.79°W
Report Text: KBWD 221355Z AUTO 23007KT 10SM CLR 10/07 A2967 RMK AO2
Loading
Personal Weather Stations






























Interactive Weather Map New forecast layout! Learn more

10-Day Weather Forecast

Advertisements
Track Severe Weather on mobile